Time;durP1;ratioP1;P1;durP2;ratioP2;P2;SDS_P1;SDS_P2;PMS_P1;PMS_P2;Temp;Humidity;BMP_temperature;BMP_pressure;BME280_temperature;BME280_humidity;BME280_pressure;Samples;Min_cycle;Max_cycle;Signal;HPM_P1;HPM_P2
2023/04/17 00:01:56;;;;;;;109.23;21.13;;;;;;;-145.69;100.00;52527.56;5071368;28;20233;-80
2023/04/17 00:04:23;;;;;;;182.03;24.03;;;;;;;-145.69;100.00;52501.81;5074492;28;20195;-80
2023/04/17 00:06:53;;;;;;;166.80;22.73;;;;;;;-145.69;100.00;52499.84;5074850;28;20205;-79
2023/04/17 00:09:22;;;;;;;369.40;30.13;;;;;;;-145.69;100.00;52523.59;5074976;28;20217;-80
2023/04/17 00:11:49;;;;;;;80.60;17.37;;;;;;;-145.69;100.00;52543.41;5075130;28;20202;-79
2023/04/17 00:14:17;;;;;;;78.30;20.27;;;;;;;-145.69;100.00;52489.94;5074939;28;20203;-80
2023/04/17 00:16:43;;;;;;;52.07;15.87;;;;;;;-145.69;100.00;52531.53;5074998;28;20202;-80
2023/04/17 00:19:14;;;;;;;47.23;14.87;;;;;;;-145.69;100.00;52525.59;5074915;28;20212;-80
2023/04/17 00:21:40;;;;;;;43.30;14.83;;;;;;;-145.69;100.00;52511.72;5074730;28;20261;-79
2023/04/17 00:24:08;;;;;;;42.40;15.37;;;;;;;-145.69;100.00;52468.16;5075024;28;20214;-80
2023/04/17 00:26:37;;;;;;;41.70;14.33;;;;;;;-145.69;100.00;52539.44;5074917;28;20195;-79
2023/04/17 00:29:04;;;;;;;47.73;18.97;;;;;;;-145.69;100.00;52505.78;5073544;28;20525;-80
2023/04/17 00:31:31;;;;;;;43.23;15.77;;;;;;;-145.69;100.00;52499.84;5074450;28;20297;-79
2023/04/17 00:34:00;;;;;;;40.03;14.47;;;;;;;-145.69;100.00;52523.59;5074480;28;20205;-80
2023/04/17 00:36:30;;;;;;;78.73;16.53;;;;;;;-145.69;100.00;52499.84;5074448;28;20195;-80
2023/04/17 00:38:56;;;;;;;59.40;18.50;;;;;;;-145.69;100.00;52499.84;5074731;28;20203;-80
2023/04/17 00:41:24;;;;;;;55.57;17.33;;;;;;;-145.69;100.00;52507.75;5074534;28;20227;-80
2023/04/17 00:43:51;;;;;;;49.93;16.90;;;;;;;-145.69;100.00;52523.59;5073845;28;20195;-80
2023/04/17 00:46:17;;;;;;;46.77;15.23;;;;;;;-145.69;100.00;52551.31;5074395;28;20194;-80
2023/04/17 00:48:44;;;;;;;41.40;15.47;;;;;;;-145.69;100.00;52531.53;5074191;28;20207;-80
2023/04/17 00:51:14;;;;;;;42.33;15.27;;;;;;;-145.69;100.00;52521.63;5074185;28;20205;-80
2023/04/17 00:53:40;;;;;;;44.03;15.40;;;;;;;-145.69;100.00;52535.47;5073898;28;20661;-80
2023/04/17 00:56:12;;;;;;;41.37;14.17;;;;;;;-145.69;100.00;52523.59;5074326;28;20575;-80
2023/04/17 00:58:45;;;;;;;42.90;15.07;;;;;;;-145.69;100.00;52519.63;5073429;28;20226;-79
2023/04/17 01:01:27;;;;;;;39.73;13.77;;;;;;;-145.69;100.00;52533.50;5073758;28;20229;-79
2023/04/17 01:03:53;;;;;;;37.57;12.83;;;;;;;-145.69;100.00;52493.91;5073875;28;20199;-80
2023/04/17 01:06:20;;;;;;;35.90;12.73;;;;;;;-145.69;100.00;52515.69;5073839;28;20657;-80
2023/04/17 01:08:46;;;;;;;37.03;13.70;;;;;;;-145.69;100.00;52513.69;5073704;28;20199;-80
2023/04/17 01:11:13;;;;;;;33.30;11.77;;;;;;;-145.69;100.00;52545.38;5073687;28;20290;-80
2023/04/17 01:13:48;;;;;;;26.07;10.27;;;;;;;-145.69;100.00;52537.47;5073392;28;20198;-79
2023/04/17 01:16:15;;;;;;;30.80;12.00;;;;;;;-145.69;100.00;52531.53;5073455;28;20202;-79
2023/04/17 01:18:42;;;;;;;28.93;10.83;;;;;;;-145.69;100.00;52523.59;5073744;28;20618;-79
2023/04/17 01:21:08;;;;;;;36.90;11.10;;;;;;;-145.69;100.00;52525.59;5073646;28;20206;-80
2023/04/17 01:23:50;;;;;;;23.90;9.97;;;;;;;-145.69;100.00;52529.53;5073716;28;20225;-80
2023/04/17 01:26:23;;;;;;;18.33;9.60;;;;;;;-145.69;100.00;52523.59;5073258;28;20649;-80
2023/04/17 01:28:51;;;;;;;26.03;10.70;;;;;;;-145.69;100.00;52505.78;5073520;28;20202;-80
2023/04/17 01:31:18;;;;;;;28.23;10.67;;;;;;;-145.69;100.00;52507.75;5073304;28;20669;-81
2023/04/17 01:33:44;;;;;;;24.57;9.80;;;;;;;-145.69;100.00;52523.59;5073332;28;20281;-79
2023/04/17 01:36:11;;;;;;;31.83;12.60;;;;;;;-145.69;100.00;52519.63;5073176;28;20194;-80
2023/04/17 01:38:40;;;;;;;31.43;12.30;;;;;;;-145.69;100.00;52509.75;5073285;28;20249;-80
2023/04/17 01:41:09;;;;;;;35.03;13.67;;;;;;;-145.69;100.00;52511.72;5072866;28;20191;-80
2023/04/17 01:43:47;;;;;;;37.00;14.57;;;;;;;-145.69;100.00;52523.59;5073460;28;20608;-79
2023/04/17 01:46:13;;;;;;;37.47;14.47;;;;;;;-145.69;100.00;52519.63;5072865;28;20775;-80
2023/04/17 01:48:40;;;;;;;41.57;15.10;;;;;;;-145.69;100.00;52549.34;5072880;28;20195;-80
2023/04/17 01:51:07;;;;;;;42.87;15.27;;;;;;;-145.69;100.00;52539.44;5072799;28;20202;-80
2023/04/17 01:53:34;;;;;;;47.30;16.30;;;;;;;-145.69;100.00;52513.69;5071660;28;20199;-80
2023/04/17 01:56:03;;;;;;;50.97;17.50;;;;;;;-145.69;100.00;52539.44;5071230;28;20199;-81
2023/04/17 01:58:30;;;;;;;46.77;16.83;;;;;;;-145.69;100.00;52521.63;5072969;28;20661;-80
2023/04/17 02:00:59;;;;;;;49.10;17.47;;;;;;;-145.69;100.00;52547.38;5073196;28;20601;-80
2023/04/17 02:03:26;;;;;;;45.97;16.57;;;;;;;-145.69;100.00;52513.69;5072435;28;20277;-79
2023/04/17 02:05:59;;;;;;;39.07;14.30;;;;;;;-145.69;100.00;52541.44;5072886;28;20206;-79
2023/04/17 02:08:25;;;;;;;38.83;15.07;;;;;;;-145.69;100.00;52511.72;5072537;28;20209;-79
2023/04/17 02:13:35;;;;;;;42.80;14.63;;;;;;;-145.69;100.00;52539.44;5071094;28;20215;-80
2023/04/17 02:16:02;;;;;;;42.93;15.50;;;;;;;-145.69;100.00;52527.56;5072804;28;20223;-80
2023/04/17 02:18:32;;;;;;;44.43;16.10;;;;;;;-145.69;100.00;52543.41;5072918;28;20226;-80
2023/04/17 02:20:58;;;;;;;44.07;14.97;;;;;;;-145.69;100.00;52543.41;5072757;28;20210;-79
2023/04/17 02:23:25;;;;;;;41.73;15.07;;;;;;;-145.69;100.00;52531.53;5072819;28;20227;-80
2023/04/17 02:25:51;;;;;;;39.27;14.10;;;;;;;-145.69;100.00;52539.44;5072713;28;20214;-80
2023/04/17 02:28:20;;;;;;;40.83;13.77;;;;;;;-145.69;100.00;52555.28;5072652;28;20206;-80
2023/04/17 02:30:49;;;;;;;36.23;13.47;;;;;;;-145.69;100.00;52529.53;5072670;28;20206;-79
2023/04/17 02:33:18;;;;;;;33.23;12.67;;;;;;;-145.69;100.00;52575.09;5072754;28;20211;-81
2023/04/17 02:35:49;;;;;;;31.67;11.73;;;;;;;-145.69;100.00;52515.69;5072868;28;20198;-80
2023/04/17 02:38:22;;;;;;;31.23;11.60;;;;;;;-145.69;100.00;52521.63;5072297;28;20194;-80
2023/04/17 02:40:54;;;;;;;29.43;10.80;;;;;;;-145.69;100.00;52529.53;5072548;28;20210;-80
2023/04/17 02:43:21;;;;;;;34.33;12.67;;;;;;;-145.69;100.00;52507.75;5072113;28;20223;-80
2023/04/17 02:45:52;;;;;;;32.93;11.07;;;;;;;-145.69;100.00;52521.63;5072320;28;20293;-80
2023/04/17 02:48:20;;;;;;;25.73;10.10;;;;;;;-145.69;100.00;52547.38;5072414;28;20228;-80
2023/04/17 02:50:47;;;;;;;29.43;10.23;;;;;;;-145.69;100.00;52521.63;5072748;28;20210;-80
2023/04/17 02:53:16;;;;;;;26.77;9.73;;;;;;;-145.69;100.00;52539.44;5072274;28;20576;-80
2023/04/17 02:55:45;;;;;;;24.83;9.87;;;;;;;-145.69;100.00;52539.44;5071961;28;20197;-80
2023/04/17 02:58:14;;;;;;;24.60;9.50;;;;;;;-145.69;100.00;52513.69;5072533;28;20207;-80
2023/04/17 03:00:41;;;;;;;23.90;9.23;;;;;;;-145.69;100.00;52529.53;5072299;28;20564;-79
2023/04/17 03:03:08;;;;;;;20.97;9.17;;;;;;;-145.69;100.00;52549.34;5072359;28;20222;-80
2023/04/17 03:05:36;;;;;;;23.00;9.23;;;;;;;-145.69;100.00;52531.53;5071642;28;20717;-80
2023/04/17 03:08:02;;;;;;;23.43;9.30;;;;;;;-145.69;100.00;52533.50;5072266;28;20203;-79
2023/04/17 03:10:33;;;;;;;26.83;10.37;;;;;;;-145.69;100.00;52557.28;5072439;28;20198;-81
2023/04/17 03:13:02;;;;;;;24.47;10.07;;;;;;;-145.69;100.00;52559.25;5072281;28;20243;-80
2023/04/17 03:15:31;;;;;;;28.10;11.50;;;;;;;-145.69;100.00;52503.81;5072402;28;20234;-80
2023/04/17 03:17:59;;;;;;;28.63;11.60;;;;;;;-145.69;100.00;52557.28;5072382;28;20203;-80
2023/04/17 03:20:26;;;;;;;33.47;12.20;;;;;;;-145.69;100.00;52499.84;5072153;28;20198;-80
2023/04/17 03:22:59;;;;;;;41.95;17.40;;;;;;;-145.69;100.00;52549.34;5073008;28;20469;-80
2023/04/17 03:25:26;;;;;;;45.33;14.40;;;;;;;-145.69;100.00;52547.38;5075820;28;20186;-80
2023/04/17 03:27:57;;;;;;;37.87;13.53;;;;;;;-145.69;100.00;52531.53;5075906;28;20203;-80
2023/04/17 03:30:24;;;;;;;41.73;14.20;;;;;;;-145.69;100.00;52535.47;5075836;28;20194;-80
2023/04/17 03:32:50;;;;;;;41.70;13.90;;;;;;;-145.69;100.00;52547.38;5075719;28;20298;-80
2023/04/17 03:35:18;;;;;;;39.20;14.17;;;;;;;-145.69;100.00;52557.28;5074745;28;20294;-79
2023/04/17 03:37:45;;;;;;;35.50;13.00;;;;;;;-145.69;100.00;52535.47;5074030;28;20222;-79
2023/04/17 03:40:20;;;;;;;33.10;12.47;;;;;;;-145.69;100.00;52487.97;5075792;28;20199;-80
2023/04/17 03:42:49;;;;;;;28.13;10.90;;;;;;;-145.69;100.00;52547.38;5075146;28;20225;-80
2023/04/17 03:45:15;;;;;;;32.37;11.77;;;;;;;-145.69;100.00;52523.59;5072016;28;20227;-80
2023/04/17 03:47:42;;;;;;;24.73;9.87;;;;;;;-145.69;100.00;52543.41;5074290;28;20280;-79
2023/04/17 03:50:11;;;;;;;31.77;11.53;;;;;;;-145.69;100.00;52563.22;5074875;28;20217;-80
2023/04/17 03:52:39;;;;;;;23.10;9.53;;;;;;;-145.69;100.00;52539.44;5074897;28;20278;-80
2023/04/17 03:55:16;;;;;;;22.87;10.03;;;;;;;-145.69;100.00;52517.66;5074925;28;20191;-80
2023/04/17 03:57:43;;;;;;;25.63;10.23;;;;;;;-145.69;100.00;52537.47;5073922;28;20569;-80
2023/04/17 04:00:11;;;;;;;31.67;11.60;;;;;;;-145.69;100.00;52547.38;5075241;28;20199;-81
2023/04/17 04:02:40;;;;;;;37.67;13.03;;;;;;;-145.69;100.00;52537.47;5075115;28;20230;-80
2023/04/17 04:05:10;;;;;;;41.70;16.35;;;;;;;-145.69;100.00;52531.53;5071059;28;20533;-79
2023/04/17 04:07:37;;;;;;;46.47;15.40;;;;;;;-145.69;100.00;52519.63;5075011;28;20718;-80
2023/04/17 04:10:05;;;;;;;58.07;15.30;;;;;;;-145.69;100.00;52511.72;5074975;28;20214;-80
2023/04/17 04:12:34;;;;;;;48.33;15.57;;;;;;;-145.69;100.00;52523.59;5074598;28;20199;-80
2023/04/17 04:15:05;;;;;;;48.90;16.63;;;;;;;-145.69;100.00;52523.59;5074819;28;20206;-79
2023/04/17 04:17:31;;;;;;;42.30;16.10;;;;;;;-145.69;100.00;52551.31;5074731;28;20186;-80
2023/04/17 04:19:59;;;;;;;39.73;15.17;;;;;;;-145.69;100.00;52545.38;5075043;28;20620;-80
2023/04/17 04:22:28;;;;;;;41.60;14.57;;;;;;;-145.69;100.00;52535.47;5074865;28;20218;-80
2023/04/17 04:24:56;;;;;;;34.40;12.33;;;;;;;-145.69;100.00;52551.31;5074776;28;20728;-80
2023/04/17 04:27:31;;;;;;;32.40;11.70;;;;;;;-145.69;100.00;52577.06;5074592;28;20194;-80
2023/04/17 04:30:03;;;;;;;22.10;9.83;;;;;;;-145.69;100.00;52519.63;5074942;28;20271;-81
2023/04/17 04:32:30;;;;;;;22.67;8.93;;;;;;;-145.69;100.00;52547.38;5074689;28;20298;-80
2023/04/17 04:34:57;;;;;;;28.97;10.70;;;;;;;-145.69;100.00;52545.38;5073315;28;20240;-80
2023/04/17 04:37:30;;;;;;;26.23;9.67;;;;;;;-145.69;100.00;52545.38;5074660;28;20252;-81
2023/04/17 04:40:00;;;;;;;27.63;10.73;;;;;;;-145.69;100.00;52515.69;5074308;28;20560;-79
2023/04/17 04:42:27;;;;;;;28.13;10.40;;;;;;;-145.69;100.00;52545.38;5074083;28;20724;-80
2023/04/17 04:44:55;;;;;;;27.37;10.73;;;;;;;-145.69;100.00;52517.66;5073995;28;20317;-79
2023/04/17 04:47:23;;;;;;;26.80;10.53;;;;;;;-145.69;100.00;52531.53;5074500;28;20230;-80
2023/04/17 04:49:52;;;;;;;26.13;11.10;;;;;;;-145.69;100.00;52575.09;5074195;28;20204;-80
2023/04/17 04:52:18;;;;;;;33.30;12.47;;;;;;;-145.69;100.00;52571.13;5074209;28;20203;-80
2023/04/17 04:54:45;;;;;;;41.23;13.83;;;;;;;-145.69;100.00;52571.13;5074554;28;20205;-80
2023/04/17 04:57:11;;;;;;;42.40;16.03;;;;;;;-145.69;100.00;52543.41;5074211;28;20198;-79
2023/04/17 04:59:38;;;;;;;49.53;16.97;;;;;;;-145.69;100.00;52541.44;5074242;28;20207;-79
2023/04/17 05:02:04;;;;;;;55.73;17.40;;;;;;;-145.69;100.00;52565.19;5074031;28;20222;-80
2023/04/17 05:04:32;;;;;;;50.57;16.80;;;;;;;-145.69;100.00;52523.59;5073172;28;20225;-81
2023/04/17 05:06:59;;;;;;;50.17;17.10;;;;;;;-145.69;100.00;52531.53;5073808;28;20209;-80
2023/04/17 05:09:25;;;;;;;45.17;15.20;;;;;;;-145.69;100.00;52531.53;5073888;28;20252;-80
2023/04/17 05:11:52;;;;;;;49.63;16.40;;;;;;;-145.69;100.00;52571.13;5074033;28;20217;-79
2023/04/17 05:14:21;;;;;;;53.43;16.90;;;;;;;-145.69;100.00;52503.81;5073668;28;20209;-80
2023/04/17 05:16:48;;;;;;;42.47;15.90;;;;;;;-145.69;100.00;52553.31;5073865;28;20199;-79
2023/04/17 05:19:15;;;;;;;48.40;16.93;;;;;;;-145.69;100.00;52533.50;5073498;28;20221;-80
2023/04/17 05:21:43;;;;;;;39.53;15.10;;;;;;;-145.69;100.00;52575.09;5073533;28;20221;-79
2023/04/17 05:24:09;;;;;;;41.47;15.13;;;;;;;-145.69;100.00;52537.47;5073628;28;20231;-79
2023/04/17 05:26:39;;;;;;;41.17;14.77;;;;;;;-145.69;100.00;52553.31;5073591;28;20692;-80
2023/04/17 05:29:05;;;;;;;43.73;15.17;;;;;;;-145.69;100.00;52525.59;5073694;28;20286;-80
2023/04/17 05:31:32;;;;;;;45.33;15.33;;;;;;;-145.69;100.00;52517.66;5073595;28;20556;-80
2023/04/17 05:33:58;;;;;;;43.23;14.93;;;;;;;-145.69;100.00;52527.56;5072830;28;20210;-80
2023/04/17 05:36:32;;;;;;;41.97;14.17;;;;;;;-145.69;100.00;52537.47;5073124;28;20565;-80
2023/04/17 05:39:03;;;;;;;39.93;14.67;;;;;;;-145.69;100.00;52551.31;5073072;28;20195;-80
2023/04/17 05:41:36;;;;;;;37.67;13.00;;;;;;;-145.69;100.00;52527.56;5073252;28;20539;-79
2023/04/17 05:44:02;;;;;;;35.90;12.17;;;;;;;-145.69;100.00;52537.47;5072970;28;20748;-80
2023/04/17 05:46:31;;;;;;;30.57;11.63;;;;;;;-145.69;100.00;52569.16;5071610;28;20203;-80
2023/04/17 05:49:01;;;;;;;30.43;10.83;;;;;;;-145.69;100.00;52555.28;5058841;28;20202;-80
2023/04/17 05:51:27;;;;;;;24.70;9.70;;;;;;;-145.69;100.00;52557.28;5052396;28;20615;-80
2023/04/17 05:53:57;;;;;;;27.47;9.90;;;;;;;-145.69;100.00;52547.38;5070495;28;20569;-80
2023/04/17 05:56:26;;;;;;;24.67;9.70;;;;;;;-145.69;100.00;52579.06;5072347;28;20199;-80
2023/04/17 05:58:54;;;;;;;23.43;8.53;;;;;;;-145.69;100.00;52559.25;5072048;28;20209;-80
2023/04/17 06:01:22;;;;;;;23.07;9.03;;;;;;;-145.69;100.00;52549.34;5072207;28;20202;-80
2023/04/17 06:03:51;;;;;;;22.77;8.70;;;;;;;-145.69;100.00;52531.53;5071884;28;20313;-80
2023/04/17 06:06:19;;;;;;;19.20;7.60;;;;;;;-145.69;100.00;52531.53;5072043;28;20206;-80
2023/04/17 06:08:46;;;;;;;26.03;9.23;;;;;;;-145.69;100.00;52545.38;5072346;28;20202;-80
2023/04/17 06:11:14;;;;;;;20.65;9.02;;;;;;;-145.69;100.00;52575.09;5071934;28;20936;-80
2023/04/17 06:13:42;;;;;;;16.17;7.13;;;;;;;-145.69;100.00;52583.00;5071438;28;20646;-80
2023/04/17 06:16:09;;;;;;;17.67;7.23;;;;;;;-145.69;100.00;52555.28;5072234;28;20256;-80
2023/04/17 06:18:35;;;;;;;16.53;7.03;;;;;;;-145.69;100.00;52505.78;5071540;28;20199;-80
2023/04/17 06:21:06;;;;;;;19.50;6.50;;;;;;;-145.69;100.00;52531.53;5071914;28;20642;-80
2023/04/17 06:23:34;;;;;;;15.93;7.03;;;;;;;-145.69;100.00;52537.47;5071812;28;20226;-80
2023/04/17 06:26:07;;;;;;;10.33;5.50;;;;;;;-145.69;100.00;52541.44;5071682;28;20658;-80
2023/04/17 06:28:35;;;;;;;11.27;5.53;;;;;;;-145.69;100.00;52529.53;5072046;28;20226;-80
2023/04/17 06:31:05;;;;;;;10.40;5.13;;;;;;;-145.69;100.00;52551.31;5072117;28;20785;-80
2023/04/17 06:33:32;;;;;;;9.90;5.30;;;;;;;-145.69;100.00;52567.16;5071984;28;20198;-80
2023/04/17 06:35:58;;;;;;;11.93;5.23;;;;;;;-145.69;100.00;52535.47;5071482;28;20550;-80
2023/04/17 06:38:25;;;;;;;11.57;4.97;;;;;;;-145.69;100.00;52533.50;5071494;28;20534;-80
2023/04/17 06:40:51;;;;;;;10.03;5.30;;;;;;;-145.69;100.00;52503.81;5071693;28;20206;-79
2023/04/17 06:43:21;;;;;;;11.30;5.40;;;;;;;-145.69;100.00;52511.72;5071543;28;20226;-80
2023/04/17 06:45:50;;;;;;;12.30;5.53;;;;;;;-145.69;100.00;52535.47;5035709;28;1043581;-80
2023/04/17 06:48:18;;;;;;;10.17;5.30;;;;;;;-145.69;100.00;52523.59;5072600;28;20560;-80
2023/04/17 06:50:44;;;;;;;8.93;5.17;;;;;;;-145.69;100.00;52541.44;5072545;28;20202;-81
2023/04/17 06:53:12;;;;;;;10.10;5.23;;;;;;;-145.69;100.00;52551.31;5072261;28;20202;-80
2023/04/17 06:55:39;;;;;;;9.83;5.33;;;;;;;-145.69;100.00;52539.44;5072688;28;20202;-80
2023/04/17 06:58:07;;;;;;;11.18;6.10;;;;;;;-145.69;100.00;52553.31;5075041;28;20441;-80
2023/04/17 07:00:37;;;;;;;10.77;5.43;;;;;;;-145.69;100.00;52531.53;5076554;28;20198;-81
2023/04/17 07:03:05;;;;;;;11.27;5.70;;;;;;;-145.69;100.00;52495.88;5076302;28;20214;-80
2023/04/17 07:05:33;;;;;;;11.30;5.90;;;;;;;-145.69;100.00;52541.44;5076040;28;20205;-81
2023/04/17 07:07:59;;;;;;;9.17;5.27;;;;;;;-145.69;100.00;52535.47;5076305;28;20233;-80
2023/04/17 07:10:27;;;;;;;11.50;5.73;;;;;;;-145.69;100.00;52527.56;5075621;28;20194;-80
2023/04/17 07:12:53;;;;;;;11.43;5.23;;;;;;;-145.69;100.00;52517.66;5075274;28;20202;-80
2023/04/17 07:15:20;;;;;;;10.83;5.33;;;;;;;-145.69;100.00;52539.44;5076203;28;20199;-80
2023/04/17 07:17:47;;;;;;;10.57;5.47;;;;;;;-145.69;100.00;52551.31;5075893;28;20650;-80
2023/04/17 07:20:13;;;;;;;10.87;5.67;;;;;;;-145.69;100.00;52515.69;5075957;28;20695;-80
2023/04/17 07:22:42;;;;;;;10.10;5.27;;;;;;;-145.69;100.00;52527.56;5075840;28;20203;-80
2023/04/17 07:25:08;;;;;;;10.77;5.30;;;;;;;-145.69;100.00;52547.38;5075922;28;20588;-79
2023/04/17 07:27:37;;;;;;;11.00;5.50;;;;;;;-145.69;100.00;52549.34;5075482;28;20197;-80
2023/04/17 07:30:05;;;;;;;11.63;5.23;;;;;;;-145.69;100.00;52513.69;5075832;28;20203;-80
2023/04/17 07:32:32;;;;;;;10.37;5.83;;;;;;;-145.69;100.00;52527.56;5075960;28;20289;-81
2023/04/17 07:35:01;;;;;;;9.20;5.23;;;;;;;-145.69;100.00;52491.91;5075342;28;20282;-80
2023/04/17 07:37:28;;;;;;;8.87;5.00;;;;;;;-145.69;100.00;52547.38;5075730;28;20213;-80
2023/04/17 07:39:56;;;;;;;9.63;5.30;;;;;;;-145.69;100.00;52533.50;5075759;28;20240;-79
2023/04/17 07:42:22;;;;;;;11.20;5.50;;;;;;;-145.69;100.00;52525.59;5075724;28;20568;-80
2023/04/17 07:44:49;;;;;;;10.47;5.40;;;;;;;-145.69;100.00;52531.53;5074837;28;20242;-80
2023/04/17 07:47:17;;;;;;;12.43;6.00;;;;;;;-145.69;100.00;52545.38;5075505;28;20199;-80
2023/04/17 07:49:47;;;;;;;11.00;5.93;;;;;;;-145.69;100.00;52535.47;5069869;28;20200;-80
2023/04/17 07:52:16;;;;;;;14.77;6.77;;;;;;;-145.69;100.00;52533.50;5060501;28;20226;-80
2023/04/17 07:54:43;;;;;;;16.93;5.87;;;;;;;-145.69;100.00;52531.53;5075539;28;20602;-80
2023/04/17 07:57:11;;;;;;;12.33;5.60;;;;;;;-145.69;100.00;52529.53;5075665;28;20620;-80
2023/04/17 07:59:37;;;;;;;10.27;5.47;;;;;;;-145.69;100.00;52563.22;5075477;28;20224;-80
2023/04/17 08:02:04;;;;;;;11.10;5.10;;;;;;;-145.69;100.00;52533.50;5074604;28;20278;-80
2023/04/17 08:04:31;;;;;;;8.03;4.77;;;;;;;-145.69;100.00;52561.22;5075019;28;20226;-80
2023/04/17 08:06:58;;;;;;;8.53;4.90;;;;;;;-145.69;100.00;52547.38;5074781;28;20199;-80
2023/04/17 08:09:25;;;;;;;7.67;4.50;;;;;;;-145.69;100.00;52525.59;5074878;28;20199;-80
2023/04/17 08:11:51;;;;;;;8.97;4.40;;;;;;;-145.69;100.00;52575.09;5075205;28;20209;-80
2023/04/17 08:14:19;;;;;;;7.47;4.20;;;;;;;-145.69;100.00;52551.31;5074990;28;20756;-80
2023/04/17 08:16:46;;;;;;;6.97;3.80;;;;;;;-145.69;100.00;52555.28;5074529;28;20664;-81
2023/04/17 08:19:13;;;;;;;7.50;3.90;;;;;;;-145.69;100.00;52511.72;5075364;28;20233;-84
2023/04/17 08:21:40;;;;;;;7.57;3.93;;;;;;;-145.69;100.00;52543.41;5074890;28;20650;-85
2023/04/17 08:24:07;;;;;;;6.20;3.63;;;;;;;-145.69;100.00;52511.72;5075127;28;20236;-84
2023/04/17 08:26:34;;;;;;;5.57;3.63;;;;;;;-145.69;100.00;52551.31;5074925;28;20626;-84
2023/04/17 08:29:03;;;;;;;7.20;3.83;;;;;;;-145.69;100.00;52523.59;5073811;28;20517;-84
2023/04/17 08:31:31;;;;;;;5.60;3.20;;;;;;;-145.69;100.00;52505.78;5074839;28;20194;-84
2023/04/17 08:34:00;;;;;;;5.00;2.87;;;;;;;-145.69;100.00;52535.47;5074936;28;20205;-85
2023/04/17 08:36:27;;;;;;;5.40;2.47;;;;;;;-145.69;100.00;52501.81;5074489;28;20718;-83
2023/04/17 08:38:53;;;;;;;2.70;1.90;;;;;;;-145.69;100.00;52513.69;5074750;28;20207;-83
2023/04/17 08:41:24;;;;;;;2.77;1.60;;;;;;;-145.69;100.00;52501.81;5074574;28;20206;-83
2023/04/17 08:43:52;;;;;;;2.17;1.60;;;;;;;-145.69;100.00;52527.56;5074073;28;20222;-83
2023/04/17 08:46:21;;;;;;;2.13;1.50;;;;;;;-145.69;100.00;52523.59;5074669;28;20198;-83
2023/04/17 08:48:49;;;;;;;1.50;1.40;;;;;;;-145.69;100.00;52480.03;5074295;28;20197;-83
2023/04/17 08:51:16;;;;;;;2.93;1.70;;;;;;;-145.69;100.00;52495.88;5074616;28;20199;-82
2023/04/17 08:53:43;;;;;;;1.20;1.10;;;;;;;-145.69;100.00;52501.81;5074413;28;20203;-83
2023/04/17 08:56:09;;;;;;;2.50;1.50;;;;;;;-145.69;100.00;52543.41;5071270;28;20239;-82
2023/04/17 08:58:36;;;;;;;1.87;1.27;;;;;;;-145.69;100.00;52491.91;5074287;28;20230;-83
2023/04/17 09:01:11;;;;;;;1.93;1.50;;;;;;;-145.69;100.00;52523.59;5073907;28;20561;-83
2023/04/17 09:03:42;;;;;;;2.67;1.80;;;;;;;-145.69;100.00;52497.84;5073868;28;20657;-82
2023/04/17 09:06:14;;;;;;;5.40;2.27;;;;;;;-145.69;100.00;52507.75;5072545;28;20331;-82
2023/04/17 09:08:57;;;;;;;3.60;1.90;;;;;;;-145.69;100.00;52501.81;5073616;28;20228;-82
2023/04/17 09:11:25;;;;;;;3.20;1.83;;;;;;;-145.69;100.00;52507.75;5073806;28;20201;-80
2023/04/17 09:13:52;;;;;;;3.47;1.87;;;;;;;-145.69;100.00;52547.38;5073382;28;20203;-81
2023/04/17 09:16:19;;;;;;;3.33;1.97;;;;;;;-145.69;100.00;52491.91;5073767;28;20588;-81
2023/04/17 09:18:46;;;;;;;3.77;2.20;;;;;;;-145.69;100.00;52535.47;5073902;28;20205;-81
2023/04/17 09:21:17;;;;;;;4.23;2.03;;;;;;;-145.69;100.00;52509.75;5073004;28;20199;-82
2023/04/17 09:23:49;;;;;;;5.47;2.60;;;;;;;-145.69;100.00;52507.75;5073527;28;20234;-83
2023/04/17 09:26:17;;;;;;;3.47;2.00;;;;;;;-145.69;100.00;52519.63;5073714;28;20199;-83
2023/04/17 09:29:03;;;;;;;4.00;2.40;;;;;;;-145.69;100.00;52543.41;5063015;28;20204;-83
2023/04/17 09:31:33;;;;;;;4.10;1.97;;;;;;;-145.69;100.00;52559.25;5053953;28;20199;-83
2023/04/17 09:34:01;;;;;;;2.47;1.80;;;;;;;-145.69;100.00;52499.84;5068065;28;20212;-80
2023/04/17 09:36:30;;;;;;;4.60;2.40;;;;;;;-145.69;100.00;52493.91;5072748;28;20195;-80
2023/04/17 09:38:59;;;;;;;3.27;1.90;;;;;;;-145.69;100.00;52495.88;5073115;28;20195;-81
2023/04/17 09:41:27;;;;;;;4.10;1.97;;;;;;;-145.69;100.00;52460.22;5072764;28;20241;-80
2023/04/17 09:43:59;;;;;;;2.93;1.90;;;;;;;-145.69;100.00;52495.88;5068640;28;20206;-79
2023/04/17 09:46:36;;;;;;;3.33;1.50;;;;;;;-145.69;100.00;52454.28;5053370;28;20715;-80
2023/04/17 09:49:09;;;;;;;1.40;1.10;;;;;;;-145.69;100.00;52501.81;5053557;28;20199;-80
2023/04/17 09:51:43;;;;;;;1.97;1.20;;;;;;;-145.69;100.00;52484.00;5052909;28;20558;-81
2023/04/17 09:54:11;;;;;;;1.90;1.40;;;;;;;-145.69;100.00;52484.00;5053097;28;20202;-80
2023/04/17 09:56:37;;;;;;;1.63;1.33;;;;;;;-145.69;100.00;52487.97;5069923;28;20620;-80
2023/04/17 09:59:09;;;;;;;2.67;1.43;;;;;;;-145.69;100.00;52543.41;5073040;28;20201;-80
2023/04/17 10:01:39;;;;;;;2.57;1.63;;;;;;;-145.69;100.00;52497.84;5073019;28;20198;-81
2023/04/17 10:04:12;;;;;;;1.70;1.30;;;;;;;-145.69;100.00;52491.91;5072513;28;20222;-80
2023/04/17 10:06:40;;;;;;;2.20;1.60;;;;;;;-145.69;100.00;52472.13;5072736;28;20879;-79
2023/04/17 10:09:07;;;;;;;2.17;1.60;;;;;;;-145.69;100.00;52491.91;5072357;28;20677;-80
2023/04/17 10:11:37;;;;;;;2.07;1.60;;;;;;;-145.69;100.00;52535.47;5073223;28;20195;-80
2023/04/17 10:14:10;;;;;;;2.77;1.50;;;;;;;-145.69;100.00;52515.69;5072912;28;20286;-79
2023/04/17 10:16:38;;;;;;;1.80;1.47;;;;;;;-145.69;100.00;52495.88;5072942;28;20202;-79
2023/04/17 10:19:24;;;;;;;1.63;1.10;;;;;;;-145.69;100.00;52458.25;5072265;28;20667;-80
2023/04/17 10:22:24;;;;;;;1.73;1.23;;;;;;;-145.69;100.00;52487.97;5073052;28;20205;-80
2023/04/17 10:25:19;;;;;;;2.77;1.10;;;;;;;-145.69;100.00;52507.75;5072749;28;20230;-80
2023/04/17 10:27:49;;;;;;;1.53;1.30;;;;;;;-145.69;100.00;52484.00;5072647;28;20203;-80
2023/04/17 10:30:21;;;;;;;3.00;1.83;;;;;;;-145.69;100.00;52531.53;5072446;28;20630;-80
2023/04/17 10:33:23;;;;;;;1.77;1.30;;;;;;;-145.69;100.00;52507.75;5071297;28;20209;-80
2023/04/17 10:35:50;;;;;;;3.53;1.73;;;;;;;-145.69;100.00;52484.00;5069975;28;20268;-80
2023/04/17 10:38:31;;;;;;;2.72;1.85;;;;;;;-145.69;100.00;52567.16;5071996;28;20449;-80
2023/04/17 10:41:02;;;;;;;3.23;1.70;;;;;;;-145.69;100.00;52507.75;5072130;28;20198;-80
2023/04/17 10:43:29;;;;;;;3.03;1.90;;;;;;;-145.69;100.00;52491.91;5071066;28;20240;-80
2023/04/17 10:45:58;;;;;;;3.57;2.10;;;;;;;-145.69;100.00;52511.72;5071166;28;20719;-80
2023/04/17 10:48:29;;;;;;;2.97;2.10;;;;;;;-145.69;100.00;52487.97;5072476;28;20206;-80
2023/04/17 10:50:56;;;;;;;2.40;2.00;;;;;;;-145.69;100.00;52462.22;5071031;28;20195;-80
2023/04/17 10:53:43;;;;;;;3.97;2.50;;;;;;;-145.69;100.00;52472.13;5071837;28;20203;-79
2023/04/17 10:56:16;;;;;;;5.00;2.78;;;;;;;-145.69;100.00;52505.78;5072384;28;20195;-79
2023/04/17 10:58:56;;;;;;;5.00;2.85;;;;;;;-145.69;100.00;52487.97;5072627;28;20209;-80
2023/04/17 11:01:25;;;;;;;3.90;2.67;;;;;;;-145.69;100.00;52507.75;5072652;28;20245;-80
2023/04/17 11:03:52;;;;;;;5.27;3.10;;;;;;;-145.69;100.00;52484.00;5072258;28;20203;-80
2023/04/17 11:06:19;;;;;;;6.40;3.63;;;;;;;-145.69;100.00;52487.97;5071488;28;20305;-80
2023/04/17 11:08:46;;;;;;;4.43;3.00;;;;;;;-145.69;100.00;52484.00;5071955;28;20213;-80
2023/04/17 11:11:15;;;;;;;3.73;2.67;;;;;;;-145.69;100.00;52537.47;5072503;28;20562;-81